Terminal Aerodrome Forecast
Issued by NWS King Salmon, AK

Home | Current Version | Previous Version | Text Only | Print | Product List | Glossary On
Versions: 1 2 3 4 5 6 7 8 9 10 11 12 13 14 15 16 17 18 19 20 21 22 23 24 25 26 27 28 29 30 31 32 33 34 35 36 37 38 39 40 41 42
000
FTAK31 PANC 051142
TAFAKN
TAF
PAKN 051142Z 0512/0612 13009KT P6SM -SHRA VCFG SCT015 BKN060 OVC100
      TEMPO 0512/0515 BKN012 OVC060
     FM051900 10015G22KT P6SM -RA SCT040 OVC080
     FM052200 10020G30KT P6SM -RA SCT040 OVC080
     FM060900 11016G20KT P6SM -RA BKN040 OVC080=

USA.gov is the U.S. government's official web portal to all federal, state and local government web resources and services.